createdAt,value
2022-10-14T00:00:41.882Z,995.42
2022-10-14T00:01:41.908Z,995.43
2022-10-14T00:02:41.850Z,995.44
2022-10-14T00:03:41.837Z,995.44
2022-10-14T00:04:41.816Z,995.45
2022-10-14T00:05:41.805Z,995.41
2022-10-14T00:06:41.790Z,995.44
2022-10-14T00:07:41.771Z,995.40
2022-10-14T00:08:41.753Z,995.43
2022-10-14T00:09:41.743Z,995.42
2022-10-14T00:10:41.723Z,995.39
2022-10-14T00:11:41.709Z,995.41
2022-10-14T00:12:41.695Z,995.41
2022-10-14T00:13:41.679Z,995.44
2022-10-14T00:14:41.658Z,995.39
2022-10-14T00:15:41.655Z,995.40
2022-10-14T00:16:41.626Z,995.40
2022-10-14T00:17:41.613Z,995.45
2022-10-14T00:18:41.598Z,995.43
2022-10-14T00:19:41.582Z,995.40
2022-10-14T00:20:41.564Z,995.41
2022-10-14T00:21:41.547Z,995.41
2022-10-14T00:22:41.534Z,995.47
2022-10-14T00:23:41.518Z,995.42
2022-10-14T00:24:41.498Z,995.44
2022-10-14T00:25:41.488Z,995.39
2022-10-14T00:26:41.471Z,995.38
2022-10-14T00:27:41.454Z,995.39
2022-10-14T00:28:41.468Z,995.38
2022-10-14T00:29:41.423Z,995.40
2022-10-14T00:30:41.406Z,995.42
2022-10-14T00:31:41.396Z,995.40
2022-10-14T00:32:41.374Z,995.34
2022-10-14T00:33:41.359Z,995.35
2022-10-14T00:34:41.341Z,995.37
2022-10-14T00:35:41.326Z,995.37
2022-10-14T00:36:41.308Z,995.39
2022-10-14T00:37:41.297Z,995.41
2022-10-14T00:38:41.277Z,995.39
2022-10-14T00:39:41.263Z,995.41
2022-10-14T00:40:41.251Z,995.42
2022-10-14T00:41:41.230Z,995.40
2022-10-14T00:42:41.213Z,995.42
2022-10-14T00:43:41.200Z,995.43
2022-10-14T00:44:41.180Z,995.41
2022-10-14T00:45:41.166Z,995.38
2022-10-14T00:46:41.151Z,995.39
2022-10-14T00:47:41.134Z,995.40
2022-10-14T00:48:41.116Z,995.38
2022-10-14T00:49:41.100Z,995.37
2022-10-14T00:50:41.086Z,995.41
2022-10-14T00:51:41.076Z,995.35
2022-10-14T00:52:41.070Z,995.41
2022-10-14T00:53:41.036Z,995.36
2022-10-14T00:54:41.023Z,995.36
2022-10-14T00:55:41.005Z,995.37
2022-10-14T00:56:40.990Z,995.37
2022-10-14T00:57:40.972Z,995.35
2022-10-14T00:58:40.964Z,995.35
2022-10-14T00:59:40.956Z,995.35
2022-10-14T01:00:40.976Z,995.37
2022-10-14T01:01:40.920Z,995.34
2022-10-14T01:02:40.951Z,995.34
2022-10-14T01:03:40.880Z,995.37
2022-10-14T01:04:40.860Z,995.34
2022-10-14T01:05:40.847Z,995.34
2022-10-14T01:06:40.830Z,995.34
2022-10-14T01:07:40.816Z,995.33
2022-10-14T01:08:40.799Z,995.30
2022-10-14T01:09:40.785Z,995.28
2022-10-14T01:10:40.766Z,995.25
2022-10-14T01:11:40.753Z,995.25
2022-10-14T01:12:40.737Z,995.26
2022-10-14T01:13:40.730Z,995.25
2022-10-14T01:14:40.707Z,995.26
2022-10-14T01:15:40.690Z,995.22
2022-10-14T01:16:40.672Z,995.22
2022-10-14T01:17:40.660Z,995.19
2022-10-14T01:18:40.645Z,995.19
2022-10-14T01:19:40.628Z,995.17
2022-10-14T01:20:40.606Z,995.18
2022-10-14T01:21:40.594Z,995.15
2022-10-14T01:22:40.576Z,995.16
2022-10-14T01:23:40.561Z,995.18
2022-10-14T01:24:40.543Z,995.18
2022-10-14T01:25:40.534Z,995.22
2022-10-14T01:26:40.513Z,995.21
2022-10-14T01:27:40.498Z,995.19
2022-10-14T01:28:40.540Z,995.17
2022-10-14T01:29:40.467Z,995.17
2022-10-14T01:30:40.450Z,995.20
2022-10-14T01:31:40.437Z,995.19
2022-10-14T01:32:40.417Z,995.15
2022-10-14T01:33:40.405Z,995.13
2022-10-14T01:34:40.385Z,995.11
2022-10-14T01:35:40.373Z,995.12
2022-10-14T01:36:40.364Z,995.13
2022-10-14T01:37:40.338Z,995.12
2022-10-14T01:38:40.328Z,995.12
2022-10-14T01:39:40.309Z,995.09
2022-10-14T01:40:40.288Z,995.10
2022-10-14T01:41:40.276Z,995.09
2022-10-14T01:42:40.260Z,995.11
2022-10-14T01:43:40.245Z,995.10
2022-10-14T01:44:40.228Z,995.09
2022-10-14T01:45:40.214Z,995.09
2022-10-14T01:46:40.198Z,995.09
2022-10-14T01:47:40.181Z,995.05
2022-10-14T01:48:40.162Z,995.07
2022-10-14T01:49:40.150Z,995.07
2022-10-14T01:50:40.136Z,995.07
2022-10-14T01:51:40.117Z,995.04
2022-10-14T01:52:40.105Z,995.03
2022-10-14T01:53:40.086Z,995.02
2022-10-14T01:54:40.066Z,995.04
2022-10-14T01:55:40.053Z,995.02
2022-10-14T01:56:40.848Z,995.01
2022-10-14T01:57:40.022Z,995.03
2022-10-14T01:58:40.006Z,994.99
2022-10-14T01:59:39.992Z,994.96
2022-10-14T02:00:39.973Z,994.93
2022-10-14T02:01:40.036Z,994.92
2022-10-14T02:02:39.940Z,994.89
2022-10-14T02:03:39.926Z,994.87
2022-10-14T02:04:39.908Z,994.85
2022-10-14T02:05:39.916Z,994.88
2022-10-14T02:06:39.889Z,994.83
2022-10-14T02:07:39.864Z,994.81
2022-10-14T02:08:39.846Z,994.79
2022-10-14T02:09:39.835Z,994.78
2022-10-14T02:10:39.832Z,994.80
2022-10-14T02:11:39.801Z,994.79
2022-10-14T02:12:39.783Z,994.82
2022-10-14T02:13:39.781Z,994.80
2022-10-14T02:14:39.771Z,994.75
2022-10-14T02:15:39.742Z,994.76
2022-10-14T02:16:39.717Z,994.76
2022-10-14T02:17:39.704Z,994.73
2022-10-14T02:18:39.686Z,994.73
2022-10-14T02:19:39.671Z,994.74
2022-10-14T02:20:39.661Z,994.68
2022-10-14T02:21:39.639Z,994.69
2022-10-14T02:22:39.622Z,994.68
2022-10-14T02:23:39.609Z,994.69
2022-10-14T02:24:39.593Z,994.66
2022-10-14T02:25:39.575Z,994.63
2022-10-14T02:26:39.557Z,994.61
2022-10-14T02:27:39.543Z,994.59
2022-10-14T02:28:39.579Z,994.58
2022-10-14T02:29:39.512Z,994.56
2022-10-14T02:30:39.493Z,994.58
2022-10-14T02:31:39.486Z,994.56
2022-10-14T02:32:39.463Z,994.60
2022-10-14T02:33:39.446Z,994.56
2022-10-14T02:34:39.430Z,994.54
2022-10-14T02:35:39.415Z,994.56
2022-10-14T02:36:39.397Z,994.53
2022-10-14T02:37:39.384Z,994.54
2022-10-14T02:38:39.366Z,994.50
2022-10-14T02:39:39.351Z,994.50
2022-10-14T02:40:39.333Z,994.50
2022-10-14T02:41:39.318Z,994.52
2022-10-14T02:42:39.305Z,994.48
2022-10-14T02:43:39.296Z,994.48
2022-10-14T02:44:39.268Z,994.48
2022-10-14T02:45:39.254Z,994.46
2022-10-14T02:46:39.239Z,994.43
2022-10-14T02:47:39.223Z,994.43
2022-10-14T02:48:39.208Z,994.45
2022-10-14T02:49:39.190Z,994.41
2022-10-14T02:50:39.176Z,994.39
2022-10-14T02:51:39.169Z,994.38
2022-10-14T02:52:39.143Z,994.41
2022-10-14T02:53:39.130Z,994.38
2022-10-14T02:54:39.109Z,994.41
2022-10-14T02:55:39.094Z,994.39
2022-10-14T02:56:39.078Z,994.39
2022-10-14T02:57:39.062Z,994.38
2022-10-14T02:58:39.044Z,994.38
2022-10-14T02:59:39.033Z,994.36
2022-10-14T03:00:39.025Z,994.38
2022-10-14T03:01:39.078Z,994.37
2022-10-14T03:02:38.991Z,994.34
2022-10-14T03:03:38.971Z,994.34
2022-10-14T03:04:38.951Z,994.30
2022-10-14T03:05:38.935Z,994.30
2022-10-14T03:06:38.916Z,994.31
2022-10-14T03:07:38.904Z,994.28
2022-10-14T03:08:38.887Z,994.28
2022-10-14T03:09:38.872Z,994.31
2022-10-14T03:10:38.857Z,994.24
2022-10-14T03:11:38.838Z,994.26
2022-10-14T03:12:38.821Z,994.22
2022-10-14T03:13:38.815Z,994.22
2022-10-14T03:14:38.789Z,994.24
2022-10-14T03:15:38.770Z,994.25
2022-10-14T03:16:38.757Z,994.22
2022-10-14T03:17:38.745Z,994.21
2022-10-14T03:18:38.728Z,994.22
2022-10-14T03:19:38.709Z,994.21
2022-10-14T03:20:38.694Z,994.22
2022-10-14T03:21:38.685Z,994.19
2022-10-14T03:22:38.661Z,994.16
2022-10-14T03:23:38.643Z,994.19
2022-10-14T03:24:38.628Z,994.15
2022-10-14T03:25:38.611Z,994.14
2022-10-14T03:26:38.599Z,994.18
2022-10-14T03:27:38.578Z,994.16
2022-10-14T03:28:38.634Z,994.15
2022-10-14T03:29:38.545Z,994.13
2022-10-14T03:30:38.531Z,994.14
2022-10-14T03:31:38.514Z,994.09
2022-10-14T03:32:38.499Z,994.08
2022-10-14T03:33:38.482Z,994.14
2022-10-14T03:34:38.468Z,994.08
2022-10-14T03:35:38.450Z,994.12
2022-10-14T03:36:38.433Z,994.10
2022-10-14T03:37:38.419Z,994.14
2022-10-14T03:38:38.403Z,994.11
2022-10-14T03:39:38.385Z,994.10
2022-10-14T03:40:38.375Z,994.06
2022-10-14T03:41:38.383Z,994.08
2022-10-14T03:42:38.337Z,994.08
2022-10-14T03:43:38.322Z,994.14
2022-10-14T03:44:38.308Z,994.03
2022-10-14T03:45:38.293Z,993.98
2022-10-14T03:46:38.273Z,994.03
2022-10-14T03:47:38.258Z,993.92
2022-10-14T03:48:38.243Z,993.93
2022-10-14T03:49:38.226Z,993.93
2022-10-14T03:50:38.211Z,993.93
2022-10-14T03:51:38.192Z,993.95
2022-10-14T03:52:38.173Z,993.97
2022-10-14T03:53:38.165Z,993.91
2022-10-14T03:54:38.158Z,993.89
2022-10-14T03:55:38.126Z,993.90
2022-10-14T03:56:38.109Z,993.88
2022-10-14T03:57:38.095Z,993.92
2022-10-14T03:58:38.081Z,993.87
2022-10-14T03:59:38.061Z,993.86
2022-10-14T04:00:38.047Z,993.88
2022-10-14T04:01:38.186Z,993.87
2022-10-14T04:02:38.012Z,993.85
2022-10-14T04:03:37.994Z,993.89
2022-10-14T04:04:37.981Z,993.89
2022-10-14T04:05:37.962Z,993.83
2022-10-14T04:06:37.950Z,993.86
2022-10-14T04:07:37.931Z,993.84
2022-10-14T04:08:37.914Z,993.81
2022-10-14T04:09:37.904Z,993.83
2022-10-14T04:10:37.883Z,993.84
2022-10-14T04:11:37.868Z,993.83
2022-10-14T04:12:37.849Z,993.84
2022-10-14T04:13:37.838Z,993.81
2022-10-14T04:14:37.819Z,993.82
2022-10-14T04:15:37.805Z,993.84
2022-10-14T04:16:37.785Z,993.84
2022-10-14T04:17:37.771Z,993.87
2022-10-14T04:18:37.757Z,993.89
2022-10-14T04:19:37.736Z,993.87
2022-10-14T04:20:37.724Z,993.84
2022-10-14T04:21:37.713Z,993.88
2022-10-14T04:22:37.689Z,993.83
2022-10-14T04:23:37.675Z,993.88
2022-10-14T04:24:37.659Z,993.84
2022-10-14T04:25:37.648Z,993.90
2022-10-14T04:26:37.624Z,993.85
2022-10-14T04:27:37.626Z,993.84
2022-10-14T04:28:37.636Z,993.85
2022-10-14T04:29:37.577Z,993.85
2022-10-14T04:30:37.562Z,993.79
2022-10-14T04:31:37.549Z,993.81
2022-10-14T04:32:37.527Z,993.78
2022-10-14T04:33:37.510Z,993.80
2022-10-14T04:34:37.495Z,993.82
2022-10-14T04:35:37.481Z,993.83
2022-10-14T04:36:37.463Z,993.82
2022-10-14T04:37:37.445Z,993.82
2022-10-14T04:38:37.434Z,993.79
2022-10-14T04:39:37.427Z,993.78
2022-10-14T04:40:37.400Z,993.77
2022-10-14T04:41:37.384Z,993.76
2022-10-14T04:42:37.369Z,993.75
2022-10-14T04:43:37.356Z,993.74
2022-10-14T04:44:37.337Z,993.74
2022-10-14T04:45:37.318Z,993.80
2022-10-14T04:46:37.306Z,993.77
2022-10-14T04:47:37.291Z,993.75
2022-10-14T04:48:37.270Z,993.77
2022-10-14T04:49:37.252Z,993.72
2022-10-14T04:50:37.240Z,993.81
2022-10-14T04:51:37.223Z,993.78
2022-10-14T04:52:37.209Z,993.77
2022-10-14T04:53:37.191Z,993.75
2022-10-14T04:54:37.175Z,993.76
2022-10-14T04:55:37.157Z,993.75
2022-10-14T04:56:37.147Z,993.74
2022-10-14T04:57:37.128Z,993.71
2022-10-14T04:58:37.116Z,993.68
2022-10-14T04:59:37.095Z,993.67
2022-10-14T05:00:37.077Z,993.64
2022-10-14T05:01:37.110Z,993.57
2022-10-14T05:02:37.044Z,993.55
2022-10-14T05:03:37.028Z,993.51
2022-10-14T05:04:37.021Z,993.49
2022-10-14T05:05:36.996Z,993.49
2022-10-14T05:06:36.980Z,993.51
2022-10-14T05:07:36.964Z,993.47
2022-10-14T05:08:36.947Z,993.51
2022-10-14T05:09:36.935Z,993.44
2022-10-14T05:10:36.914Z,993.45
2022-10-14T05:11:36.904Z,993.46
2022-10-14T05:12:36.882Z,993.48
2022-10-14T05:13:36.865Z,993.47
2022-10-14T05:14:36.853Z,993.41
2022-10-14T05:15:36.838Z,993.44
2022-10-14T05:16:36.823Z,993.41
2022-10-14T05:17:36.803Z,993.42
2022-10-14T05:18:36.785Z,993.44
2022-10-14T05:19:36.769Z,993.40
2022-10-14T05:20:36.752Z,993.37
2022-10-14T05:21:36.738Z,993.38
2022-10-14T05:22:36.723Z,993.39
2022-10-14T05:23:36.704Z,993.36
2022-10-14T05:24:36.699Z,993.36
2022-10-14T05:25:36.676Z,993.35
2022-10-14T05:26:36.676Z,993.34
2022-10-14T05:27:36.643Z,993.33
2022-10-14T05:28:36.681Z,993.33
2022-10-14T05:31:12.272Z,993.31
2022-10-14T05:32:12.269Z,993.36
2022-10-14T05:33:12.224Z,993.36
2022-10-14T05:34:12.231Z,993.37
2022-10-14T05:35:12.241Z,993.39
2022-10-14T05:36:12.192Z,993.40
2022-10-14T05:37:12.216Z,993.39
2022-10-14T05:38:12.177Z,993.37
2022-10-14T05:39:12.123Z,993.39
2022-10-14T05:40:12.117Z,993.38
2022-10-14T05:41:12.097Z,993.40
2022-10-14T05:42:12.084Z,993.39
2022-10-14T05:43:12.064Z,993.36
2022-10-14T05:44:12.047Z,993.39
2022-10-14T05:45:12.028Z,993.36
2022-10-14T05:46:12.013Z,993.37
2022-10-14T05:47:12.009Z,993.33
2022-10-14T05:48:11.981Z,993.33
2022-10-14T05:49:11.966Z,993.31
2022-10-14T05:50:11.952Z,993.33
2022-10-14T05:51:11.935Z,993.31
2022-10-14T05:52:11.931Z,993.29
2022-10-14T05:53:11.905Z,993.30
2022-10-14T05:54:11.887Z,993.33
2022-10-14T05:55:11.868Z,993.31
2022-10-14T05:56:11.853Z,993.28
2022-10-14T05:57:11.838Z,993.33
2022-10-14T05:58:11.822Z,993.31
2022-10-14T05:59:11.838Z,993.35
2022-10-14T06:00:11.791Z,993.34
2022-10-14T06:01:11.771Z,993.30
2022-10-14T06:02:11.760Z,993.33
2022-10-14T06:03:11.792Z,993.33
2022-10-14T06:04:11.728Z,993.30
2022-10-14T06:05:11.714Z,993.35
2022-10-14T06:06:11.693Z,993.29
2022-10-14T06:07:11.676Z,993.30
2022-10-14T06:08:11.665Z,993.33
2022-10-14T06:09:11.762Z,993.32
2022-10-14T06:10:11.630Z,993.32
2022-10-14T06:11:11.614Z,993.28
2022-10-14T06:12:11.598Z,993.27
2022-10-14T06:13:11.581Z,993.28
2022-10-14T06:14:11.566Z,993.26
2022-10-14T06:15:11.554Z,993.28
2022-10-14T06:16:11.536Z,993.23
2022-10-14T06:17:11.519Z,993.27
2022-10-14T06:18:11.502Z,993.24
2022-10-14T06:19:11.485Z,993.25
2022-10-14T06:20:11.472Z,993.30
2022-10-14T06:21:11.459Z,993.29
2022-10-14T06:22:11.439Z,993.30
2022-10-14T06:23:11.422Z,993.29
2022-10-14T06:24:11.410Z,993.32
2022-10-14T06:25:11.391Z,993.32
2022-10-14T06:26:11.376Z,993.34
2022-10-14T06:27:11.360Z,993.34
2022-10-14T06:28:11.347Z,993.34
2022-10-14T06:29:11.332Z,993.34
2022-10-14T06:30:11.315Z,993.37
2022-10-14T06:31:11.297Z,993.32
2022-10-14T06:32:11.280Z,993.33
2022-10-14T06:33:11.266Z,993.29
2022-10-14T06:34:11.250Z,993.28
2022-10-14T06:35:11.234Z,993.25
2022-10-14T06:36:11.217Z,993.28
2022-10-14T06:37:11.206Z,993.24
2022-10-14T06:38:11.185Z,993.21
2022-10-14T06:39:11.169Z,993.23
2022-10-14T06:40:11.156Z,993.22
2022-10-14T06:41:11.136Z,993.22
2022-10-14T06:42:20.807Z,993.24
2022-10-14T06:43:11.106Z,993.19
2022-10-14T06:44:11.096Z,993.20
2022-10-14T06:45:11.076Z,993.22
2022-10-14T06:46:11.063Z,993.22
2022-10-14T06:47:11.043Z,993.29
2022-10-14T06:48:11.028Z,993.24
2022-10-14T06:49:11.014Z,993.22
2022-10-14T06:50:11.002Z,993.25
2022-10-14T06:51:10.982Z,993.21
2022-10-14T06:52:10.967Z,993.21
2022-10-14T06:53:10.952Z,993.24
2022-10-14T06:54:10.935Z,993.20
2022-10-14T06:55:10.920Z,993.22
2022-10-14T06:56:10.905Z,993.22
2022-10-14T06:57:10.894Z,993.23
2022-10-14T06:58:10.875Z,993.23
2022-10-14T06:59:10.854Z,993.25
2022-10-14T07:00:10.852Z,993.25
2022-10-14T07:01:10.825Z,993.23
2022-10-14T07:02:10.810Z,993.24
2022-10-14T07:03:10.793Z,993.30
2022-10-14T07:04:10.779Z,993.28
2022-10-14T07:05:10.773Z,993.28
2022-10-14T07:06:10.752Z,993.26
2022-10-14T07:07:10.731Z,993.23
2022-10-14T07:08:14.426Z,993.27
2022-10-14T07:09:10.702Z,993.27
2022-10-14T07:10:10.684Z,993.26
2022-10-14T07:11:10.667Z,993.31
2022-10-14T07:12:10.653Z,993.30
2022-10-14T07:13:10.640Z,993.32
2022-10-14T07:14:10.624Z,993.33
2022-10-14T07:15:10.612Z,993.31
2022-10-14T07:16:10.640Z,993.34
2022-10-14T07:17:10.572Z,993.32
2022-10-14T07:18:10.559Z,993.36
2022-10-14T07:19:10.552Z,993.34
2022-10-14T07:20:10.529Z,993.36
2022-10-14T07:21:10.512Z,993.35
2022-10-14T07:22:10.497Z,993.34
2022-10-14T07:23:10.480Z,993.37
2022-10-14T07:24:10.466Z,993.35
2022-10-14T07:25:10.449Z,993.35
2022-10-14T07:26:10.439Z,993.38
2022-10-14T07:27:10.421Z,993.37
2022-10-14T07:28:10.408Z,993.33
2022-10-14T07:29:10.392Z,993.36
2022-10-14T07:30:12.659Z,993.39
2022-10-14T07:31:10.356Z,993.38
2022-10-14T07:32:10.343Z,993.38
2022-10-14T07:33:10.327Z,993.37
2022-10-14T07:34:10.309Z,993.42
2022-10-14T07:35:10.296Z,993.35
2022-10-14T07:36:10.283Z,993.42
2022-10-14T07:37:10.264Z,993.39
2022-10-14T07:38:10.248Z,993.33
2022-10-14T07:39:10.232Z,993.34
2022-10-14T07:40:10.216Z,993.37
2022-10-14T07:41:10.199Z,993.32
2022-10-14T07:42:10.233Z,993.34
2022-10-14T07:43:10.169Z,993.34
2022-10-14T07:44:10.153Z,993.42
2022-10-14T07:45:10.146Z,993.34
2022-10-14T07:46:10.121Z,993.30
2022-10-14T07:47:10.110Z,993.28
2022-10-14T07:48:10.093Z,993.27
2022-10-14T07:49:10.077Z,993.30
2022-10-14T07:50:10.067Z,993.29
2022-10-14T07:51:10.047Z,993.31
2022-10-14T07:52:10.031Z,993.35
2022-10-14T07:53:10.015Z,993.32
2022-10-14T07:54:10.082Z,993.32
2022-10-14T07:55:09.993Z,993.36
2022-10-14T07:56:09.966Z,993.32
2022-10-14T07:57:09.959Z,993.33
2022-10-14T07:58:09.936Z,993.28
2022-10-14T07:59:09.921Z,993.30
2022-10-14T08:00:09.940Z,993.31
2022-10-14T08:01:09.921Z,993.31
2022-10-14T08:02:09.924Z,993.32
2022-10-14T08:03:09.862Z,993.30
2022-10-14T08:04:09.872Z,993.30
2022-10-14T08:06:09.811Z,993.27
2022-10-14T08:07:09.801Z,993.22
2022-10-14T08:08:09.781Z,993.23
2022-10-14T08:09:09.769Z,993.22
2022-10-14T08:10:09.754Z,993.23
2022-10-14T08:11:09.737Z,993.23
2022-10-14T08:12:09.720Z,993.20
2022-10-14T08:13:09.710Z,993.20
2022-10-14T08:14:09.687Z,993.22
2022-10-14T08:15:09.679Z,993.22
2022-10-14T08:16:09.697Z,993.21
2022-10-14T08:17:09.643Z,993.18
2022-10-14T08:18:09.628Z,993.19
2022-10-14T08:19:13.730Z,993.24
2022-10-14T08:20:09.676Z,993.25
2022-10-14T08:21:09.585Z,993.24
2022-10-14T08:22:09.568Z,993.23
2022-10-14T08:23:09.552Z,993.22
2022-10-14T08:24:09.537Z,993.22
2022-10-14T08:25:09.546Z,993.28
2022-10-14T08:26:09.505Z,993.27
2022-10-14T08:27:09.509Z,993.25
2022-10-14T08:28:09.476Z,993.23
2022-10-14T08:29:09.465Z,993.24
2022-10-14T08:30:11.247Z,993.20
2022-10-14T08:31:09.432Z,993.16
2022-10-14T08:32:09.418Z,993.14
2022-10-14T08:33:09.401Z,993.12
2022-10-14T08:34:09.383Z,993.11
2022-10-14T08:35:09.373Z,993.12
2022-10-14T08:36:09.357Z,993.15
2022-10-14T08:37:09.341Z,993.15
2022-10-14T08:38:09.329Z,993.19
2022-10-14T08:40:09.299Z,993.16
2022-10-14T08:41:09.283Z,993.16
2022-10-14T08:42:09.266Z,993.16
2022-10-14T08:43:09.252Z,993.12
2022-10-14T08:44:09.243Z,993.15
2022-10-14T08:45:09.224Z,993.18
2022-10-14T08:46:09.208Z,993.24
2022-10-14T08:47:09.199Z,993.19
2022-10-14T08:48:09.186Z,993.19
2022-10-14T08:49:09.166Z,993.14
2022-10-14T08:50:09.152Z,993.18
2022-10-14T08:51:09.136Z,993.17
2022-10-14T08:52:09.126Z,993.20
2022-10-14T08:53:09.104Z,993.24
2022-10-14T08:54:09.091Z,993.18
2022-10-14T08:55:09.078Z,993.22
2022-10-14T08:56:09.063Z,993.23
2022-10-14T08:58:11.348Z,993.16
2022-10-14T08:59:09.017Z,993.13
2022-10-14T09:00:09.003Z,993.14
2022-10-14T09:01:11.262Z,993.14
2022-10-14T09:02:08.971Z,993.12
2022-10-14T09:03:09.006Z,993.16
2022-10-14T09:04:08.986Z,993.09
2022-10-14T09:05:08.929Z,993.10
2022-10-14T09:06:08.920Z,993.11
2022-10-14T09:07:08.900Z,993.05
2022-10-14T09:08:08.887Z,993.16
2022-10-14T09:09:08.872Z,993.12
2022-10-14T09:10:08.854Z,993.10
2022-10-14T09:11:08.840Z,993.12
2022-10-14T09:12:08.828Z,993.13
2022-10-14T09:13:08.813Z,993.13
2022-10-14T09:14:08.800Z,993.07
2022-10-14T09:15:08.784Z,993.07
2022-10-14T09:16:08.767Z,993.06
2022-10-14T09:17:08.823Z,993.08
2022-10-14T09:18:08.740Z,993.01
2022-10-14T09:19:08.728Z,993.08
2022-10-14T09:20:08.711Z,993.06
2022-10-14T09:21:08.695Z,993.06
2022-10-14T09:22:08.679Z,993.05
2022-10-14T09:23:08.667Z,992.99
2022-10-14T09:24:08.653Z,992.99
2022-10-14T09:25:08.634Z,993.03
2022-10-14T09:26:08.622Z,992.99
2022-10-14T09:27:08.607Z,992.97
2022-10-14T09:28:08.591Z,992.99
2022-10-14T09:29:08.578Z,992.96
2022-10-14T09:30:08.560Z,992.98
2022-10-14T09:31:08.547Z,992.99
2022-10-14T09:32:08.533Z,993.01
2022-10-14T09:33:08.522Z,992.99
2022-10-14T09:34:08.506Z,993.02
2022-10-14T09:35:08.489Z,993.03
2022-10-14T09:36:08.474Z,992.95
2022-10-14T09:37:08.462Z,992.96
2022-10-14T09:38:08.451Z,992.94
2022-10-14T09:39:08.433Z,992.95
2022-10-14T09:40:08.415Z,992.92
2022-10-14T09:41:08.399Z,992.90
2022-10-14T09:42:08.390Z,992.87
2022-10-14T09:43:08.381Z,992.84
2022-10-14T09:44:08.356Z,992.80
2022-10-14T09:45:08.349Z,992.78
2022-10-14T09:46:08.329Z,992.78
2022-10-14T09:47:12.146Z,992.72
2022-10-14T09:48:08.297Z,992.71
2022-10-14T09:49:08.302Z,992.68
2022-10-14T09:50:08.273Z,992.67
2022-10-14T09:51:08.255Z,992.66
2022-10-14T09:52:08.241Z,992.71
2022-10-14T09:53:10.974Z,992.69
2022-10-14T09:55:08.196Z,992.71
2022-10-14T09:56:08.211Z,992.65
2022-10-14T09:57:08.171Z,992.63
2022-10-14T09:58:08.157Z,992.63
2022-10-14T09:59:08.192Z,992.59
2022-10-14T10:00:08.127Z,992.62
2022-10-14T10:01:08.114Z,992.64
2022-10-14T10:02:08.095Z,992.59
2022-10-14T10:03:08.095Z,992.59
2022-10-14T10:04:08.069Z,992.62
2022-10-14T10:05:08.058Z,992.61
2022-10-14T10:06:08.038Z,992.56
2022-10-14T10:07:08.027Z,992.55
2022-10-14T10:08:08.010Z,992.55
2022-10-14T10:09:08.004Z,992.56
2022-10-14T10:10:07.983Z,992.50
2022-10-14T10:11:07.971Z,992.51
2022-10-14T10:12:07.953Z,992.46
2022-10-14T10:13:07.964Z,992.48
2022-10-14T10:14:07.928Z,992.42
2022-10-14T10:15:07.955Z,992.42
2022-10-14T10:16:07.909Z,992.41
2022-10-14T10:17:07.884Z,992.39
2022-10-14T10:18:07.870Z,992.40
2022-10-14T10:19:07.855Z,992.37
2022-10-14T10:20:07.867Z,992.33
2022-10-14T10:21:07.826Z,992.29
2022-10-14T10:22:07.830Z,992.28
2022-10-14T10:23:07.796Z,992.27
2022-10-14T10:24:07.802Z,992.27
2022-10-14T10:25:07.768Z,992.20
2022-10-14T10:26:07.761Z,992.19
2022-10-14T10:27:07.745Z,992.19
2022-10-14T10:28:07.726Z,992.16
2022-10-14T10:29:07.716Z,992.18
2022-10-14T10:30:07.702Z,992.21
2022-10-14T10:31:07.683Z,992.22
2022-10-14T10:32:07.674Z,992.23
2022-10-14T10:33:07.655Z,992.18
2022-10-14T10:34:07.640Z,992.22
2022-10-14T10:35:07.628Z,992.21
2022-10-14T10:36:07.670Z,992.21
2022-10-14T10:37:07.603Z,992.22
2022-10-14T10:38:07.586Z,992.26
2022-10-14T10:39:07.590Z,992.24
2022-10-14T10:40:07.561Z,992.24
2022-10-14T10:41:07.544Z,992.19
2022-10-14T10:42:07.534Z,992.20
2022-10-14T10:43:07.526Z,992.18
2022-10-14T10:44:07.523Z,992.15
2022-10-14T10:45:07.491Z,992.15
2022-10-14T10:46:07.480Z,992.16
2022-10-14T10:47:07.462Z,992.18
2022-10-14T10:48:07.452Z,992.19
2022-10-14T10:49:07.434Z,992.19
2022-10-14T10:50:07.420Z,992.16
2022-10-14T10:51:07.410Z,992.15
2022-10-14T10:52:07.395Z,992.15
2022-10-14T10:53:07.380Z,992.10
2022-10-14T10:54:07.368Z,992.12
2022-10-14T10:55:07.358Z,992.03
2022-10-14T10:56:07.409Z,992.07
2022-10-14T10:57:07.327Z,992.04
2022-10-14T10:58:09.770Z,992.03
2022-10-14T10:59:07.326Z,992.03
2022-10-14T11:00:07.286Z,992.05
2022-10-14T11:01:07.323Z,992.11
2022-10-14T11:02:07.261Z,992.10
2022-10-14T11:03:07.251Z,992.10
2022-10-14T11:04:07.236Z,992.09
2022-10-14T11:05:07.219Z,992.08
2022-10-14T11:06:07.205Z,992.02
2022-10-14T11:07:07.211Z,992.00
2022-10-14T11:08:07.187Z,991.99
2022-10-14T11:09:07.168Z,991.97
2022-10-14T11:10:07.155Z,992.02
2022-10-14T11:11:07.140Z,991.98
2022-10-14T11:12:07.124Z,991.96
2022-10-14T11:13:07.111Z,992.00
2022-10-14T11:14:07.100Z,991.97
2022-10-14T11:15:07.144Z,991.94
2022-10-14T11:16:07.111Z,991.94
2022-10-14T11:17:07.056Z,991.93
2022-10-14T11:18:07.064Z,991.98
2022-10-14T11:19:09.716Z,991.91
2022-10-14T11:20:07.018Z,991.94
2022-10-14T11:21:07.017Z,991.90
2022-10-14T11:22:06.987Z,991.90
2022-10-14T11:23:06.973Z,991.89
2022-10-14T11:24:07.022Z,991.90
2022-10-14T11:25:06.952Z,991.90
2022-10-14T11:26:06.956Z,991.93
2022-10-14T11:27:06.928Z,991.88
2022-10-14T11:28:06.911Z,991.87
2022-10-14T11:29:06.893Z,991.86
2022-10-14T11:30:06.878Z,991.83
2022-10-14T11:31:06.865Z,991.81
2022-10-14T11:32:06.853Z,991.83
2022-10-14T11:33:06.835Z,991.78
2022-10-14T11:34:06.827Z,991.79
2022-10-14T11:35:06.807Z,991.77
2022-10-14T11:36:06.795Z,991.77
2022-10-14T11:37:06.777Z,991.72
2022-10-14T11:38:06.762Z,991.75
2022-10-14T11:39:14.461Z,991.72
2022-10-14T11:41:12.202Z,991.73
2022-10-14T11:42:12.171Z,991.70
2022-10-14T11:43:12.159Z,991.68
2022-10-14T11:44:12.144Z,991.67
2022-10-14T11:45:12.945Z,991.61
2022-10-14T11:46:12.117Z,991.56
2022-10-14T11:47:12.100Z,991.58
2022-10-14T11:48:12.092Z,991.55
2022-10-14T11:49:12.076Z,991.50
2022-10-14T11:50:12.067Z,991.54
2022-10-14T11:51:12.071Z,991.50
2022-10-14T11:52:12.034Z,991.50
2022-10-14T11:53:12.015Z,991.45
2022-10-14T11:54:12.003Z,991.45
2022-10-14T11:55:14.514Z,991.48
2022-10-14T11:56:11.970Z,991.46
2022-10-14T11:57:11.964Z,991.45
2022-10-14T11:58:11.943Z,991.47
2022-10-14T11:59:11.927Z,991.44
2022-10-14T12:00:11.962Z,991.43
2022-10-14T12:01:11.901Z,991.39
2022-10-14T12:02:11.953Z,991.38
2022-10-14T12:03:11.937Z,991.37
2022-10-14T12:04:11.858Z,991.41
2022-10-14T12:05:11.844Z,991.36
2022-10-14T12:06:11.832Z,991.33
2022-10-14T12:07:11.820Z,991.38
2022-10-14T12:08:12.094Z,991.33
2022-10-14T12:09:11.797Z,991.33
2022-10-14T12:10:12.663Z,991.33
2022-10-14T12:11:11.758Z,991.35
2022-10-14T12:12:11.756Z,991.38
2022-10-14T12:13:11.734Z,991.37
2022-10-14T12:14:11.716Z,991.40
2022-10-14T12:15:11.702Z,991.37
2022-10-14T12:16:11.688Z,991.33
2022-10-14T12:17:13.602Z,991.36
2022-10-14T12:18:11.659Z,991.32
2022-10-14T12:19:11.649Z,991.31
2022-10-14T12:20:11.628Z,991.30
2022-10-14T12:21:11.618Z,991.32
2022-10-14T12:22:11.601Z,991.28
2022-10-14T12:23:11.589Z,991.27
2022-10-14T12:24:11.572Z,991.28
2022-10-14T12:25:11.559Z,991.28
2022-10-14T12:26:11.542Z,991.31
2022-10-14T12:27:11.570Z,991.28
2022-10-14T12:28:11.514Z,991.30
2022-10-14T12:29:11.571Z,991.30
2022-10-14T12:30:11.486Z,991.25
2022-10-14T12:31:11.480Z,991.24
2022-10-14T12:32:11.469Z,991.25
2022-10-14T12:33:11.442Z,991.23
2022-10-14T12:34:11.425Z,991.22
2022-10-14T12:35:11.411Z,991.19